Portada
METAR-TAF:

METAR-TAF

Aeroports :

Aeroport d'Oslo-Gardermoen

Oslo, Noruega

latitud: 60-12N, longitud: 011-05E, altitud: 208 m

Observació

L'informe es va fer fa 30 minuts, a les 00:20 UTC
Vent 7 kt del Sud/Sud-Est
Temperatura 1°C
Humitat 80%
Pressió 1015 hPa
Visibilitat 10 km o més
sense núvols per sota de 1500 mi sense presència de cumulonimbus.

METAR: ENGM 200020Z 16007KT CAVOK 01/M02 Q1015

Hora: 01:50 (00:50 UTC)

Pronòstic

Pronòstic vàlid del 20 a les 00 UTC al 20 a les 24 UTC
Vent 7 kt del Sud/Sud-Oest
Visibilitat 10 km o més
sense núvols per sota de 1500 mi sense presència de cumulonimbus.
Probabilitat 30%
l' 20 a les 02 UTC al 20 a les 06 UTC
Cel ennuvolat a una alçada de 800 ft

TAF: ENGM 2000/2024 21007KT CAVOK PROB30 2002/2006 BKN008

Observacions i pronòstics meteorològics de més de 4000 aeroports (METAR i TAF).

Les estacions disponibles són els punts grocs i vermells al mapa.

Posi el ratolí al punt desitjat per veure el nom de l'estació.

Feu clic per veure les observacions i els pronòstics meteorològics.

Per canviar el mapa: feu clic els botons verds amb una creu de color negre per apropar; al botó verd amb un guió per allunyar la imatge; o en les fletxes verdes per a mapes adjacents.


METAR-TAF: